Bei Facebook empfehlenBei Twitter postenGoogle plusPinterest

Das Wetter im Erzgebirge am 21.06.2017

Wetter und Klima am 21.06.2017 Holzhau im Erzgebirge (630m ü.NN)
Letzte gemessene Temperatur und Uhrzeit der Messung23:45:00 Uhr10.40 °C
Temperatur (Maximum / Höchstwert) und Uhrzeit der Messung16:45:00 Uhr26.40 °C
Temperatur (Minimum / Tiefstwert) und Uhrzeit der Messung23:45:0010.40 °C
Errechneter Absolutwert der Temperaturschwankungen zwischen Tmin und Tmax des Tages16.00 K
Errechnete Tagesmitteltemperatur18.77396 °C
Gesamt - Niederschlag des Tages (in flüssiger Form)0.00 Liter / m²
Luftdruck (Maximum / Höchstwert) und Zeitpunkt der Messung12:45:00 Uhr1015.70 hPa
Luftdruck (Minimum / Tiefstwert) und Zeitpunkt der Messung20:30:00 Uhr1014.20 hPa
Errechneter Absolutwert der Luftdruckschwankungen des Tages1.50 hPa
Höchste gemessene Windgeschwindigkeit und Uhrzeit der Messung15:30:00 Uhr24.48 km/h
Errechnete Windhäufigkeit in Relation zu den Messwerten des Tages6.25000 %
Niedrigste Windkühle (Windchill) und Zeitpunkt der Messung23:45:00 Uhr10.40 °C
Taupunkt (Maximum / Höchstwert) und Uhrzeit der Messung14:15:00 Uhr14.80 °C
Taupunkt (Minimum / Tiefstwert) und Uhrzeit der Messung22:30:006.00 °C
Anzahl der automatisch eingelesenen Messwerte 96

Detaillierte Wetter- und Klima- Messwerte für den 21.06.2017 in Holzhau im Erzgebirge (630m ü.NN)
ZeitTemperaturLuftdruckRel. LuftfeuchteWindWindrichtungWindchillTaupunktNiederschlag l/m²
23:45:0010.40 °C1015.10 hPa76.00 %6.40 °C 
23:30:0010.80 °C1014.90 hPa75.00 %6.60 °C 
23:15:0010.90 °C1014.90 hPa76.00 %6.80 °C 
23:00:0010.80 °C1014.70 hPa75.00 %6.60 °C 
22:45:0011.10 °C1014.90 hPa72.00 %6.30 °C 
22:30:0011.30 °C1014.80 hPa70.00 %6.00 °C 
22:15:0011.80 °C1014.90 hPa68.00 %6.10 °C 
22:00:0012.50 °C1014.90 hPa66.00 %6.30 °C 
21:45:0013.50 °C1014.70 hPa64.00 %6.80 °C 
21:30:0014.50 °C1014.70 hPa63.00 %7.50 °C 
21:15:0015.60 °C1014.40 hPa59.00 %7.60 °C 
21:00:0016.90 °C1014.40 hPa55.00 %7.80 °C 
20:45:0018.30 °C1014.30 hPa53.00 %8.60 °C 
20:30:0018.90 °C1014.20 hPa52.00 %8.80 °C 
20:15:0019.80 °C1014.30 hPa52.00 %9.70 °C 
20:00:0020.70 °C1014.20 hPa52.00 %10.50 °C 
19:45:0021.60 °C1014.20 hPa51.00 %11.00 °C 
19:30:0022.10 °C1014.20 hPa50.00 %18.00 km/hW23.50 °C11.20 °C 
19:15:0022.80 °C1014.20 hPa50.00 %9.00 km/hNNO22.80 °C11.80 °C 
19:00:0023.20 °C1014.20 hPa50.00 %12.20 °C 
18:45:0023.50 °C1014.30 hPa50.00 %12.50 °C 
18:30:0024.20 °C1014.40 hPa48.00 %12.50 °C 
18:15:0024.10 °C1014.30 hPa48.00 %12.40 °C 
18:00:0024.40 °C1014.40 hPa48.00 %12.70 °C 
17:45:0024.70 °C1014.20 hPa47.00 %12.60 °C 
17:30:0025.20 °C1014.40 hPa46.00 %12.80 °C 
17:15:0026.10 °C1014.40 hPa45.00 %13.20 °C 
17:00:0026.30 °C1014.40 hPa46.00 %13.80 °C 
16:45:0026.40 °C1014.60 hPa47.00 %14.20 °C 
16:30:0026.10 °C1014.60 hPa47.00 %13.90 °C 
16:15:0026.20 °C1014.70 hPa46.00 %13.70 °C 
16:00:0026.10 °C1014.70 hPa47.00 %13.90 °C 
15:45:0026.20 °C1014.80 hPa48.00 %2.52 km/hWSW26.20 °C14.30 °C 
15:30:0025.50 °C1015.00 hPa49.00 %24.48 km/hSW27.30 °C14.00 °C 
15:15:0026.40 °C1015.20 hPa48.00 %14.50 °C 
15:00:0025.90 °C1014.90 hPa48.00 %14.10 °C 
14:45:0026.10 °C1015.40 hPa48.00 %14.20 °C 
14:30:0025.80 °C1015.40 hPa48.00 %14.00 °C 
14:15:0026.40 °C1015.20 hPa49.00 %14.80 °C 
14:00:0025.40 °C1015.10 hPa50.00 %14.20 °C 
13:45:0024.60 °C1015.50 hPa52.00 %14.10 °C 
13:30:0025.10 °C1015.30 hPa50.00 %11.52 km/hNNW25.10 °C13.90 °C 
13:15:0025.30 °C1015.50 hPa50.00 %14.10 °C 
13:00:0024.90 °C1015.60 hPa52.00 %14.40 °C 
12:45:0025.20 °C1015.70 hPa51.00 %14.30 °C 
12:30:0024.80 °C1015.70 hPa52.00 %14.30 °C 
12:15:0024.70 °C1015.70 hPa52.00 %14.20 °C 
12:00:0024.90 °C1015.60 hPa53.00 %14.70 °C 
11:45:0024.20 °C1015.70 hPa53.00 %14.00 °C 
11:30:0024.20 °C1015.70 hPa54.00 %14.30 °C 
11:15:0024.00 °C1015.70 hPa55.00 %14.40 °C 
11:00:0023.20 °C1015.60 hPa56.00 %13.90 °C 
10:45:0023.30 °C1015.60 hPa56.00 %14.00 °C 
10:30:0022.80 °C1015.30 hPa58.00 %14.10 °C 
10:15:0022.80 °C1015.30 hPa59.00 %14.40 °C 
10:00:0022.30 °C1015.30 hPa62.00 %14.70 °C 
09:45:0021.90 °C1015.00 hPa63.00 %14.50 °C 
09:30:0021.40 °C1015.20 hPa66.00 %14.80 °C 
09:15:0021.20 °C1015.00 hPa66.00 %9.00 km/hSSW21.20 °C14.60 °C 
09:00:0020.90 °C1015.00 hPa68.00 %14.80 °C 
08:45:0020.90 °C1014.90 hPa67.00 %14.50 °C 
08:30:0021.20 °C1015.00 hPa67.00 %14.80 °C 
08:15:0021.10 °C1015.00 hPa67.00 %14.70 °C 
08:00:0020.70 °C1014.90 hPa68.00 %14.60 °C 
07:45:0020.10 °C1014.90 hPa70.00 %14.50 °C 
07:30:0019.20 °C1014.90 hPa74.00 %14.50 °C 
07:15:0016.80 °C1015.00 hPa82.00 %13.70 °C 
07:00:0013.00 °C1015.00 hPa88.00 %11.10 °C 
06:45:0011.90 °C1015.10 hPa88.00 %10.00 °C 
06:30:0011.40 °C1015.10 hPa89.00 %9.70 °C 
06:15:0011.10 °C1015.00 hPa89.00 %9.40 °C 
06:00:0010.80 °C1015.10 hPa89.00 %9.10 °C 
05:45:0010.60 °C1015.00 hPa88.00 %8.70 °C 
05:30:0010.60 °C1014.90 hPa88.00 %8.70 °C 
05:15:0010.50 °C1014.90 hPa88.00 %8.60 °C 
05:00:0010.70 °C1014.90 hPa88.00 %8.80 °C 
04:45:0010.90 °C1014.80 hPa87.00 %8.80 °C 
04:30:0011.20 °C1014.70 hPa87.00 %9.10 °C 
04:15:0011.30 °C1014.90 hPa87.00 %9.20 °C 
04:00:0011.60 °C1014.90 hPa87.00 %9.50 °C 
03:45:0011.80 °C1014.90 hPa86.00 %9.50 °C 
03:30:0011.90 °C1014.80 hPa86.00 %9.60 °C 
03:15:0011.90 °C1014.80 hPa85.00 %9.50 °C 
03:00:0012.10 °C1014.90 hPa85.00 %9.70 °C 
02:45:0012.30 °C1014.80 hPa86.00 %10.00 °C 
02:30:0012.40 °C1015.20 hPa84.00 %9.80 °C 
02:15:0012.80 °C1015.10 hPa83.00 %10.00 °C 
02:00:0013.30 °C1015.00 hPa83.00 %10.50 °C 
01:45:0013.80 °C1014.90 hPa82.00 %10.80 °C 
01:30:0014.20 °C1014.90 hPa82.00 %11.20 °C 
01:15:0014.60 °C1014.90 hPa81.00 %11.40 °C 
01:00:0015.00 °C1014.90 hPa81.00 %11.80 °C 
00:45:0015.10 °C1014.90 hPa80.00 %11.70 °C 
00:30:0015.10 °C1015.00 hPa80.00 %11.70 °C 
00:15:0015.00 °C1014.90 hPa79.00 %11.40 °C 
00:00:0015.20 °C1014.90 hPa78.00 %11.40 °C 

Permanenter Link zu dieser Seite: Wetter im Erzgebirge am 21.06.2017
Performance-Info: Die Erstellung der Seite / Statistik(en) / Tabelle(n) erforderte 5 Datenbankserver-Abfrage(n) und dauerte 69 Millisekunden. (Dieser Messwert ist von der Gesamt-Auslastung des Servers abhängig.)
Erzgebirge - Wetter | Erzgebirge - Wetter (Mobilgeräte) | Komplette Klimadatenbank